METAR Data
IDs: Format: Raw Decoded Include TAF

Data at: 1126 UTC 11 May 2021

METAR for:KBOI (Boise Arpt, ID, US)
Text:KBOI 111053Z 12008KT 10SM CLR 07/M02 A3012 RMK AO2 SLP192 T00721022
Temperature: 7.2°C ( 45°F)
Dewpoint: -2.2°C ( 28°F) [RH = 51%]
Pressure (altimeter):30.12 inches Hg (1020.1 mb) [Sea level pressure: 1019.2 mb]
Winds:from the ESE (120 degrees) at 9 MPH (8 knots; 4.1 m/s)
Visibility:10 or more sm (16+ km)
Ceiling:at least 12,000 feet AGL
Clouds:sky clear below 12,000 feet AGL

TAF for:KBOI (Boise Arpt, ID, US) issued at 1120 UTC 11 May 2021
Text:KBOI 111120Z 1112/1212 13008KT P6SM BKN200
Forecast period:1200 to 1800 UTC 11 May 2021
Forecast type:FROM: standard forecast or significant change
Winds:from the SE (130 degrees) at 9 MPH (8 knots; 4.1 m/s)
Visibility:6 or more sm (10+ km)
Ceiling:20000 feet AGL
Clouds: broken clouds at 20000 feet AGL
Text:FM111800 31008KT P6SM SKC
Forecast period:1800 UTC 11 May 2021 to 0500 UTC 12 May 2021
Forecast type:FROM: standard forecast or significant change
Winds:from the NW (310 degrees) at 9 MPH (8 knots; 4.1 m/s)
Visibility:6 or more sm (10+ km)
Ceiling:at least 12,000 feet AGL
Clouds:clear skies
Text:FM120500 14009KT P6SM SKC
Forecast period:0500 to 1200 UTC 12 May 2021
Forecast type:FROM: standard forecast or significant change
Winds:from the SE (140 degrees) at 10 MPH (9 knots; 4.6 m/s)
Visibility:6 or more sm (10+ km)
Ceiling:at least 12,000 feet AGL
Clouds:clear skies